Aviation Digital Data Service (ADDS)

Output produced by TAFs form (1256 UTC 30 October 2014)
found at http://aviationweather.gov/adds/tafs/
 
KELP 301142Z 3012/3112 VRB05KT P6SM SKC 
     FM301900 09008KT P6SM SKC 
     FM310500 08013G20KT P6SM SCT250